sensor_id;sensor_type;location;lat;lon;timestamp;P1;durP1;ratioP1;P2;durP2;ratioP2
29938;SDS011;16799;50.844;5.304;2022-07-06T00:01:29;3.47;;;3.27;;
29938;SDS011;16799;50.844;5.304;2022-07-06T00:03:54;4.17;;;3.40;;
29938;SDS011;16799;50.844;5.304;2022-07-06T00:06:20;4.10;;;3.70;;
29938;SDS011;16799;50.844;5.304;2022-07-06T00:08:46;7.23;;;4.00;;
29938;SDS011;16799;50.844;5.304;2022-07-06T00:11:11;3.50;;;3.20;;
29938;SDS011;16799;50.844;5.304;2022-07-06T00:13:37;5.60;;;3.93;;
29938;SDS011;16799;50.844;5.304;2022-07-06T00:16:03;3.43;;;3.20;;
29938;SDS011;16799;50.844;5.304;2022-07-06T00:18:29;2.87;;;2.67;;
29938;SDS011;16799;50.844;5.304;2022-07-06T00:20:55;4.63;;;3.17;;
29938;SDS011;16799;50.844;5.304;2022-07-06T00:23:21;6.77;;;4.07;;
29938;SDS011;16799;50.844;5.304;2022-07-06T00:25:47;5.03;;;4.67;;
29938;SDS011;16799;50.844;5.304;2022-07-06T00:28:13;4.00;;;3.47;;
29938;SDS011;16799;50.844;5.304;2022-07-06T00:30:39;7.10;;;3.47;;
29938;SDS011;16799;50.844;5.304;2022-07-06T00:33:04;3.47;;;3.13;;
29938;SDS011;16799;50.844;5.304;2022-07-06T00:35:30;3.97;;;3.67;;
29938;SDS011;16799;50.844;5.304;2022-07-06T00:37:56;5.00;;;3.70;;
29938;SDS011;16799;50.844;5.304;2022-07-06T00:40:21;8.33;;;3.83;;
29938;SDS011;16799;50.844;5.304;2022-07-06T00:42:47;3.37;;;2.57;;
29938;SDS011;16799;50.844;5.304;2022-07-06T00:45:14;3.17;;;2.73;;
29938;SDS011;16799;50.844;5.304;2022-07-06T00:47:41;5.77;;;3.93;;
29938;SDS011;16799;50.844;5.304;2022-07-06T00:50:08;5.40;;;4.03;;
29938;SDS011;16799;50.844;5.304;2022-07-06T00:52:39;3.80;;;3.60;;
29938;SDS011;16799;50.844;5.304;2022-07-06T00:55:09;3.47;;;3.17;;
29938;SDS011;16799;50.844;5.304;2022-07-06T00:57:35;5.73;;;4.60;;
29938;SDS011;16799;50.844;5.304;2022-07-06T01:00:02;3.60;;;3.30;;
29938;SDS011;16799;50.844;5.304;2022-07-06T01:02:32;3.20;;;3.00;;
29938;SDS011;16799;50.844;5.304;2022-07-06T01:04:59;7.30;;;3.70;;
29938;SDS011;16799;50.844;5.304;2022-07-06T01:07:24;2.93;;;2.53;;
29938;SDS011;16799;50.844;5.304;2022-07-06T01:09:50;5.10;;;3.10;;
29938;SDS011;16799;50.844;5.304;2022-07-06T01:12:16;3.67;;;3.40;;
29938;SDS011;16799;50.844;5.304;2022-07-06T01:14:42;5.03;;;4.73;;
29938;SDS011;16799;50.844;5.304;2022-07-06T01:17:08;5.17;;;3.33;;
29938;SDS011;16799;50.844;5.304;2022-07-06T01:19:34;3.10;;;2.90;;
29938;SDS011;16799;50.844;5.304;2022-07-06T01:22:00;4.73;;;4.20;;
29938;SDS011;16799;50.844;5.304;2022-07-06T01:24:26;6.10;;;3.80;;
29938;SDS011;16799;50.844;5.304;2022-07-06T01:26:52;4.67;;;4.37;;
29938;SDS011;16799;50.844;5.304;2022-07-06T01:29:18;4.87;;;3.37;;
29938;SDS011;16799;50.844;5.304;2022-07-06T01:31:47;4.10;;;3.83;;
29938;SDS011;16799;50.844;5.304;2022-07-06T01:34:14;5.47;;;3.63;;
29938;SDS011;16799;50.844;5.304;2022-07-06T01:36:41;8.23;;;4.20;;
29938;SDS011;16799;50.844;5.304;2022-07-06T01:39:07;4.63;;;4.23;;
29938;SDS011;16799;50.844;5.304;2022-07-06T01:41:33;4.90;;;4.47;;
29938;SDS011;16799;50.844;5.304;2022-07-06T01:43:59;4.87;;;3.83;;
29938;SDS011;16799;50.844;5.304;2022-07-06T01:46:25;6.33;;;4.30;;
29938;SDS011;16799;50.844;5.304;2022-07-06T01:48:51;5.43;;;4.07;;
29938;SDS011;16799;50.844;5.304;2022-07-06T01:51:17;3.90;;;3.70;;
29938;SDS011;16799;50.844;5.304;2022-07-06T01:53:43;4.60;;;4.30;;
29938;SDS011;16799;50.844;5.304;2022-07-06T01:56:09;4.33;;;4.03;;
29938;SDS011;16799;50.844;5.304;2022-07-06T01:58:35;4.50;;;4.30;;
29938;SDS011;16799;50.844;5.304;2022-07-06T02:01:06;4.30;;;4.00;;
29938;SDS011;16799;50.844;5.304;2022-07-06T02:03:33;6.50;;;4.73;;
29938;SDS011;16799;50.844;5.304;2022-07-06T02:05:58;10.30;;;4.73;;
29938;SDS011;16799;50.844;5.304;2022-07-06T02:08:25;4.30;;;4.00;;
29938;SDS011;16799;50.844;5.304;2022-07-06T02:10:50;3.87;;;3.60;;
29938;SDS011;16799;50.844;5.304;2022-07-06T02:13:16;3.67;;;3.47;;
29938;SDS011;16799;50.844;5.304;2022-07-06T02:15:42;4.00;;;3.70;;
29938;SDS011;16799;50.844;5.304;2022-07-06T02:18:07;4.20;;;3.10;;
29938;SDS011;16799;50.844;5.304;2022-07-06T02:20:33;3.83;;;3.57;;
29938;SDS011;16799;50.844;5.304;2022-07-06T02:22:59;7.50;;;4.87;;
29938;SDS011;16799;50.844;5.304;2022-07-06T02:25:24;4.30;;;3.73;;
29938;SDS011;16799;50.844;5.304;2022-07-06T02:27:50;6.77;;;4.63;;
29938;SDS011;16799;50.844;5.304;2022-07-06T02:30:16;6.17;;;5.77;;
29938;SDS011;16799;50.844;5.304;2022-07-06T02:32:42;6.80;;;5.53;;
29938;SDS011;16799;50.844;5.304;2022-07-06T02:35:07;4.13;;;3.83;;
29938;SDS011;16799;50.844;5.304;2022-07-06T02:37:33;5.07;;;4.67;;
29938;SDS011;16799;50.844;5.304;2022-07-06T02:39:59;7.57;;;4.40;;
29938;SDS011;16799;50.844;5.304;2022-07-06T02:42:25;4.20;;;4.00;;
29938;SDS011;16799;50.844;5.304;2022-07-06T02:44:52;4.57;;;4.20;;
29938;SDS011;16799;50.844;5.304;2022-07-06T02:47:18;4.00;;;3.70;;
29938;SDS011;16799;50.844;5.304;2022-07-06T02:49:44;3.63;;;3.43;;
29938;SDS011;16799;50.844;5.304;2022-07-06T02:52:09;5.23;;;4.20;;
29938;SDS011;16799;50.844;5.304;2022-07-06T02:54:35;4.60;;;4.00;;
29938;SDS011;16799;50.844;5.304;2022-07-06T02:57:01;4.50;;;3.90;;
29938;SDS011;16799;50.844;5.304;2022-07-06T02:59:26;4.43;;;4.13;;
29938;SDS011;16799;50.844;5.304;2022-07-06T03:01:52;6.50;;;4.37;;
29938;SDS011;16799;50.844;5.304;2022-07-06T03:04:18;4.27;;;3.90;;
29938;SDS011;16799;50.844;5.304;2022-07-06T03:06:43;5.90;;;4.20;;
29938;SDS011;16799;50.844;5.304;2022-07-06T03:09:09;10.93;;;4.70;;
29938;SDS011;16799;50.844;5.304;2022-07-06T03:11:35;4.00;;;3.70;;
29938;SDS011;16799;50.844;5.304;2022-07-06T03:14:03;5.30;;;4.73;;
29938;SDS011;16799;50.844;5.304;2022-07-06T03:16:29;5.10;;;4.40;;
29938;SDS011;16799;50.844;5.304;2022-07-06T03:18:55;8.87;;;4.80;;
29938;SDS011;16799;50.844;5.304;2022-07-06T03:21:22;4.80;;;4.30;;
29938;SDS011;16799;50.844;5.304;2022-07-06T03:23:51;5.50;;;5.00;;
29938;SDS011;16799;50.844;5.304;2022-07-06T03:26:17;5.20;;;4.70;;
29938;SDS011;16799;50.844;5.304;2022-07-06T03:28:43;4.57;;;4.23;;
29938;SDS011;16799;50.844;5.304;2022-07-06T03:31:08;4.13;;;3.70;;
29938;SDS011;16799;50.844;5.304;2022-07-06T03:33:34;4.90;;;4.60;;
29938;SDS011;16799;50.844;5.304;2022-07-06T03:35:59;4.23;;;3.77;;
29938;SDS011;16799;50.844;5.304;2022-07-06T03:38:25;5.00;;;4.40;;
29938;SDS011;16799;50.844;5.304;2022-07-06T03:40:51;5.20;;;4.40;;
29938;SDS011;16799;50.844;5.304;2022-07-06T03:43:16;4.90;;;4.60;;
29938;SDS011;16799;50.844;5.304;2022-07-06T03:45:42;5.93;;;3.97;;
29938;SDS011;16799;50.844;5.304;2022-07-06T03:48:08;4.03;;;3.83;;
29938;SDS011;16799;50.844;5.304;2022-07-06T03:50:34;3.83;;;3.63;;
29938;SDS011;16799;50.844;5.304;2022-07-06T03:53:00;8.00;;;3.30;;
29938;SDS011;16799;50.844;5.304;2022-07-06T03:55:26;6.13;;;3.50;;
29938;SDS011;16799;50.844;5.304;2022-07-06T03:57:52;4.17;;;3.77;;
29938;SDS011;16799;50.844;5.304;2022-07-06T04:00:17;8.70;;;5.17;;
29938;SDS011;16799;50.844;5.304;2022-07-06T04:02:43;9.43;;;5.10;;
29938;SDS011;16799;50.844;5.304;2022-07-06T04:05:09;5.63;;;3.57;;
29938;SDS011;16799;50.844;5.304;2022-07-06T04:07:34;7.53;;;4.70;;
29938;SDS011;16799;50.844;5.304;2022-07-06T04:10:00;5.17;;;4.63;;
29938;SDS011;16799;50.844;5.304;2022-07-06T04:12:26;4.53;;;4.23;;
29938;SDS011;16799;50.844;5.304;2022-07-06T04:14:51;4.90;;;4.50;;
29938;SDS011;16799;50.844;5.304;2022-07-06T04:17:17;4.00;;;3.70;;
29938;SDS011;16799;50.844;5.304;2022-07-06T04:20:01;5.03;;;4.73;;
29938;SDS011;16799;50.844;5.304;2022-07-06T04:22:27;5.23;;;4.40;;
29938;SDS011;16799;50.844;5.304;2022-07-06T04:24:53;3.93;;;3.53;;
29938;SDS011;16799;50.844;5.304;2022-07-06T04:27:19;9.13;;;5.47;;
29938;SDS011;16799;50.844;5.304;2022-07-06T04:29:44;9.60;;;4.67;;
29938;SDS011;16799;50.844;5.304;2022-07-06T04:32:10;4.70;;;4.27;;
29938;SDS011;16799;50.844;5.304;2022-07-06T04:34:35;7.53;;;5.20;;
29938;SDS011;16799;50.844;5.304;2022-07-06T04:37:02;5.20;;;4.70;;
29938;SDS011;16799;50.844;5.304;2022-07-06T04:39:27;9.40;;;5.70;;
29938;SDS011;16799;50.844;5.304;2022-07-06T04:41:55;7.60;;;5.60;;
29938;SDS011;16799;50.844;5.304;2022-07-06T04:44:21;11.23;;;5.80;;
29938;SDS011;16799;50.844;5.304;2022-07-06T04:46:47;7.60;;;7.00;;
29938;SDS011;16799;50.844;5.304;2022-07-06T04:49:12;6.10;;;5.60;;
29938;SDS011;16799;50.844;5.304;2022-07-06T04:51:38;7.10;;;6.33;;
29938;SDS011;16799;50.844;5.304;2022-07-06T04:54:04;14.83;;;6.90;;
29938;SDS011;16799;50.844;5.304;2022-07-06T04:56:30;8.33;;;7.47;;
29938;SDS011;16799;50.844;5.304;2022-07-06T04:58:56;25.57;;;8.60;;
29938;SDS011;16799;50.844;5.304;2022-07-06T05:01:21;13.00;;;8.63;;
29938;SDS011;16799;50.844;5.304;2022-07-06T05:03:47;11.03;;;9.10;;
29938;SDS011;16799;50.844;5.304;2022-07-06T05:06:13;11.63;;;7.33;;
29938;SDS011;16799;50.844;5.304;2022-07-06T05:08:38;10.17;;;7.67;;
29938;SDS011;16799;50.844;5.304;2022-07-06T05:11:04;10.60;;;8.10;;
29938;SDS011;16799;50.844;5.304;2022-07-06T05:13:30;19.67;;;8.87;;
29938;SDS011;16799;50.844;5.304;2022-07-06T05:15:55;14.00;;;7.93;;
29938;SDS011;16799;50.844;5.304;2022-07-06T05:18:21;10.33;;;8.97;;
29938;SDS011;16799;50.844;5.304;2022-07-06T05:20:47;8.93;;;8.13;;
29938;SDS011;16799;50.844;5.304;2022-07-06T05:23:12;18.63;;;8.00;;
29938;SDS011;16799;50.844;5.304;2022-07-06T05:25:38;12.83;;;8.87;;
29938;SDS011;16799;50.844;5.304;2022-07-06T05:28:04;13.60;;;8.23;;
29938;SDS011;16799;50.844;5.304;2022-07-06T05:30:30;10.10;;;9.13;;
29938;SDS011;16799;50.844;5.304;2022-07-06T05:32:55;15.40;;;9.17;;
29938;SDS011;16799;50.844;5.304;2022-07-06T05:35:21;12.43;;;8.50;;
29938;SDS011;16799;50.844;5.304;2022-07-06T05:37:46;8.20;;;7.43;;
29938;SDS011;16799;50.844;5.304;2022-07-06T05:40:12;9.80;;;8.90;;
29938;SDS011;16799;50.844;5.304;2022-07-06T05:42:38;11.57;;;9.60;;
29938;SDS011;16799;50.844;5.304;2022-07-06T05:45:03;10.33;;;9.30;;
29938;SDS011;16799;50.844;5.304;2022-07-06T05:47:30;9.20;;;8.10;;
29938;SDS011;16799;50.844;5.304;2022-07-06T05:50:14;18.90;;;8.77;;
29938;SDS011;16799;50.844;5.304;2022-07-06T05:52:40;9.40;;;8.60;;
29938;SDS011;16799;50.844;5.304;2022-07-06T05:55:08;11.53;;;8.03;;
29938;SDS011;16799;50.844;5.304;2022-07-06T05:57:34;11.33;;;8.17;;
29938;SDS011;16799;50.844;5.304;2022-07-06T06:00:00;9.20;;;8.30;;
29938;SDS011;16799;50.844;5.304;2022-07-06T06:02:26;12.03;;;8.10;;
29938;SDS011;16799;50.844;5.304;2022-07-06T06:05:00;12.03;;;8.13;;
29938;SDS011;16799;50.844;5.304;2022-07-06T06:07:26;13.03;;;8.10;;
29938;SDS011;16799;50.844;5.304;2022-07-06T06:09:51;10.20;;;8.20;;
29938;SDS011;16799;50.844;5.304;2022-07-06T06:12:17;15.93;;;9.53;;
29938;SDS011;16799;50.844;5.304;2022-07-06T06:14:43;9.27;;;8.40;;
29938;SDS011;16799;50.844;5.304;2022-07-06T06:17:08;14.30;;;7.43;;
29938;SDS011;16799;50.844;5.304;2022-07-06T06:19:35;9.77;;;8.63;;
29938;SDS011;16799;50.844;5.304;2022-07-06T06:22:01;13.73;;;9.13;;
29938;SDS011;16799;50.844;5.304;2022-07-06T06:24:27;11.03;;;8.90;;
29938;SDS011;16799;50.844;5.304;2022-07-06T06:26:53;15.77;;;10.77;;
29938;SDS011;16799;50.844;5.304;2022-07-06T06:29:19;15.47;;;10.37;;
29938;SDS011;16799;50.844;5.304;2022-07-06T06:31:44;13.37;;;9.87;;
29938;SDS011;16799;50.844;5.304;2022-07-06T06:34:10;28.87;;;9.43;;
29938;SDS011;16799;50.844;5.304;2022-07-06T06:36:35;11.50;;;8.40;;
29938;SDS011;16799;50.844;5.304;2022-07-06T06:39:01;10.43;;;8.90;;
29938;SDS011;16799;50.844;5.304;2022-07-06T06:41:27;8.57;;;7.60;;
29938;SDS011;16799;50.844;5.304;2022-07-06T06:43:53;6.90;;;6.30;;
29938;SDS011;16799;50.844;5.304;2022-07-06T06:46:18;11.10;;;7.60;;
29938;SDS011;16799;50.844;5.304;2022-07-06T06:48:44;9.20;;;6.67;;
29938;SDS011;16799;50.844;5.304;2022-07-06T06:51:10;9.63;;;6.97;;
29938;SDS011;16799;50.844;5.304;2022-07-06T06:53:35;11.60;;;8.00;;
29938;SDS011;16799;50.844;5.304;2022-07-06T06:56:01;7.83;;;7.00;;
29938;SDS011;16799;50.844;5.304;2022-07-06T06:58:26;6.07;;;5.67;;
29938;SDS011;16799;50.844;5.304;2022-07-06T07:00:52;14.00;;;6.13;;
29938;SDS011;16799;50.844;5.304;2022-07-06T07:03:18;8.77;;;6.53;;
29938;SDS011;16799;50.844;5.304;2022-07-06T07:05:43;14.73;;;6.10;;
29938;SDS011;16799;50.844;5.304;2022-07-06T07:08:09;8.33;;;5.87;;
29938;SDS011;16799;50.844;5.304;2022-07-06T07:10:34;6.20;;;5.70;;
29938;SDS011;16799;50.844;5.304;2022-07-06T07:13:00;15.53;;;5.80;;
29938;SDS011;16799;50.844;5.304;2022-07-06T07:15:26;9.50;;;5.30;;
29938;SDS011;16799;50.844;5.304;2022-07-06T07:17:51;9.60;;;5.90;;
29938;SDS011;16799;50.844;5.304;2022-07-06T07:20:17;7.57;;;4.40;;
29938;SDS011;16799;50.844;5.304;2022-07-06T07:22:42;8.40;;;5.30;;
29938;SDS011;16799;50.844;5.304;2022-07-06T07:25:08;5.20;;;4.27;;
29938;SDS011;16799;50.844;5.304;2022-07-06T07:27:34;14.53;;;5.70;;
29938;SDS011;16799;50.844;5.304;2022-07-06T07:30:00;5.87;;;4.43;;
29938;SDS011;16799;50.844;5.304;2022-07-06T07:32:26;2.97;;;2.80;;
29938;SDS011;16799;50.844;5.304;2022-07-06T07:34:51;6.50;;;2.80;;
29938;SDS011;16799;50.844;5.304;2022-07-06T07:37:17;8.00;;;3.40;;
29938;SDS011;16799;50.844;5.304;2022-07-06T07:39:42;6.20;;;2.50;;
29938;SDS011;16799;50.844;5.304;2022-07-06T07:42:08;3.03;;;2.83;;
29938;SDS011;16799;50.844;5.304;2022-07-06T07:44:34;3.27;;;3.00;;
29938;SDS011;16799;50.844;5.304;2022-07-06T07:46:59;2.37;;;2.17;;
29938;SDS011;16799;50.844;5.304;2022-07-06T07:49:25;3.33;;;2.57;;
29938;SDS011;16799;50.844;5.304;2022-07-06T07:51:51;3.40;;;2.87;;
29938;SDS011;16799;50.844;5.304;2022-07-06T07:54:16;5.50;;;3.10;;
29938;SDS011;16799;50.844;5.304;2022-07-06T07:56:42;9.60;;;2.00;;
29938;SDS011;16799;50.844;5.304;2022-07-06T07:59:08;3.77;;;2.20;;
29938;SDS011;16799;50.844;5.304;2022-07-06T08:01:34;3.63;;;1.27;;
29938;SDS011;16799;50.844;5.304;2022-07-06T08:04:00;3.37;;;1.47;;
29938;SDS011;16799;50.844;5.304;2022-07-06T08:06:26;1.87;;;1.00;;
29938;SDS011;16799;50.844;5.304;2022-07-06T08:08:52;1.63;;;1.20;;
29938;SDS011;16799;50.844;5.304;2022-07-06T08:11:18;3.27;;;0.73;;
29938;SDS011;16799;50.844;5.304;2022-07-06T08:13:44;1.70;;;1.10;;
29938;SDS011;16799;50.844;5.304;2022-07-06T08:16:10;1.63;;;1.27;;
29938;SDS011;16799;50.844;5.304;2022-07-06T08:18:36;2.93;;;1.20;;
29938;SDS011;16799;50.844;5.304;2022-07-06T08:21:02;1.57;;;1.47;;
29938;SDS011;16799;50.844;5.304;2022-07-06T08:23:28;1.80;;;1.00;;
29938;SDS011;16799;50.844;5.304;2022-07-06T08:25:54;1.43;;;1.30;;
29938;SDS011;16799;50.844;5.304;2022-07-06T08:28:20;1.50;;;1.10;;
29938;SDS011;16799;50.844;5.304;2022-07-06T08:30:46;1.93;;;0.90;;
29938;SDS011;16799;50.844;5.304;2022-07-06T08:33:12;1.63;;;1.03;;
29938;SDS011;16799;50.844;5.304;2022-07-06T08:35:38;2.33;;;0.80;;
29938;SDS011;16799;50.844;5.304;2022-07-06T08:38:04;3.10;;;0.90;;
29938;SDS011;16799;50.844;5.304;2022-07-06T08:40:31;2.20;;;1.10;;
29938;SDS011;16799;50.844;5.304;2022-07-06T08:42:59;3.70;;;0.93;;
29938;SDS011;16799;50.844;5.304;2022-07-06T08:45:25;2.27;;;1.03;;
29938;SDS011;16799;50.844;5.304;2022-07-06T08:47:51;5.13;;;2.07;;
29938;SDS011;16799;50.844;5.304;2022-07-06T08:50:19;2.83;;;1.47;;
29938;SDS011;16799;50.844;5.304;2022-07-06T08:52:47;6.00;;;1.50;;
29938;SDS011;16799;50.844;5.304;2022-07-06T08:55:12;6.07;;;1.53;;
29938;SDS011;16799;50.844;5.304;2022-07-06T08:57:39;6.60;;;1.80;;
29938;SDS011;16799;50.844;5.304;2022-07-06T09:00:06;3.17;;;1.50;;
29938;SDS011;16799;50.844;5.304;2022-07-06T09:02:33;4.27;;;1.90;;
29938;SDS011;16799;50.844;5.304;2022-07-06T09:04:59;2.10;;;1.33;;
29938;SDS011;16799;50.844;5.304;2022-07-06T09:07:28;1.60;;;1.40;;
29938;SDS011;16799;50.844;5.304;2022-07-06T09:09:54;6.07;;;1.67;;
29938;SDS011;16799;50.844;5.304;2022-07-06T09:12:21;2.33;;;1.50;;
29938;SDS011;16799;50.844;5.304;2022-07-06T09:14:47;3.50;;;1.73;;
29938;SDS011;16799;50.844;5.304;2022-07-06T09:17:12;6.20;;;1.53;;
29938;SDS011;16799;50.844;5.304;2022-07-06T09:19:38;1.90;;;1.63;;
29938;SDS011;16799;50.844;5.304;2022-07-06T09:22:04;6.60;;;1.30;;
29938;SDS011;16799;50.844;5.304;2022-07-06T09:24:30;6.90;;;1.30;;
29938;SDS011;16799;50.844;5.304;2022-07-06T09:26:59;2.83;;;1.43;;
29938;SDS011;16799;50.844;5.304;2022-07-06T09:29:29;1.97;;;1.10;;
29938;SDS011;16799;50.844;5.304;2022-07-06T09:32:00;3.67;;;1.17;;
29938;SDS011;16799;50.844;5.304;2022-07-06T09:34:42;2.03;;;1.13;;
29938;SDS011;16799;50.844;5.304;2022-07-06T09:37:08;4.30;;;1.27;;
29938;SDS011;16799;50.844;5.304;2022-07-06T09:39:34;4.00;;;1.23;;
29938;SDS011;16799;50.844;5.304;2022-07-06T09:42:00;2.90;;;1.17;;
29938;SDS011;16799;50.844;5.304;2022-07-06T09:44:29;2.50;;;1.33;;
29938;SDS011;16799;50.844;5.304;2022-07-06T09:46:57;2.47;;;1.17;;
29938;SDS011;16799;50.844;5.304;2022-07-06T09:49:24;1.50;;;1.00;;
29938;SDS011;16799;50.844;5.304;2022-07-06T09:51:51;1.43;;;1.33;;
29938;SDS011;16799;50.844;5.304;2022-07-06T09:54:18;2.90;;;1.93;;
29938;SDS011;16799;50.844;5.304;2022-07-06T09:56:45;6.03;;;1.20;;
29938;SDS011;16799;50.844;5.304;2022-07-06T09:59:21;2.60;;;1.63;;
29938;SDS011;16799;50.844;5.304;2022-07-06T10:01:53;1.43;;;1.03;;
29938;SDS011;16799;50.844;5.304;2022-07-06T10:04:21;1.53;;;1.30;;
29938;SDS011;16799;50.844;5.304;2022-07-06T10:06:48;5.80;;;1.10;;
29938;SDS011;16799;50.844;5.304;2022-07-06T10:09:14;5.20;;;1.70;;
29938;SDS011;16799;50.844;5.304;2022-07-06T10:11:42;2.37;;;1.10;;
29938;SDS011;16799;50.844;5.304;2022-07-06T10:14:23;1.50;;;1.33;;
29938;SDS011;16799;50.844;5.304;2022-07-06T10:16:50;1.13;;;1.03;;
29938;SDS011;16799;50.844;5.304;2022-07-06T10:19:17;2.13;;;1.67;;
29938;SDS011;16799;50.844;5.304;2022-07-06T10:21:45;2.60;;;1.50;;
29938;SDS011;16799;50.844;5.304;2022-07-06T10:24:11;5.40;;;1.20;;
29938;SDS011;16799;50.844;5.304;2022-07-06T10:26:38;1.40;;;1.03;;
29938;SDS011;16799;50.844;5.304;2022-07-06T10:29:04;1.80;;;1.20;;
29938;SDS011;16799;50.844;5.304;2022-07-06T10:31:32;3.00;;;1.80;;
29938;SDS011;16799;50.844;5.304;2022-07-06T10:34:04;4.27;;;1.63;;
29938;SDS011;16799;50.844;5.304;2022-07-06T10:36:36;6.20;;;1.27;;
29938;SDS011;16799;50.844;5.304;2022-07-06T10:39:03;1.87;;;1.40;;
29938;SDS011;16799;50.844;5.304;2022-07-06T10:41:49;3.17;;;1.17;;
29938;SDS011;16799;50.844;5.304;2022-07-06T10:44:19;4.43;;;1.03;;
29938;SDS011;16799;50.844;5.304;2022-07-06T10:46:57;2.60;;;1.43;;
29938;SDS011;16799;50.844;5.304;2022-07-06T10:49:24;4.37;;;2.23;;
29938;SDS011;16799;50.844;5.304;2022-07-06T10:51:52;2.13;;;1.27;;
29938;SDS011;16799;50.844;5.304;2022-07-06T10:54:19;1.30;;;1.20;;
29938;SDS011;16799;50.844;5.304;2022-07-06T10:56:46;1.80;;;1.23;;
29938;SDS011;16799;50.844;5.304;2022-07-06T10:59:22;5.40;;;1.63;;
29938;SDS011;16799;50.844;5.304;2022-07-06T11:04:36;3.17;;;1.87;;
29938;SDS011;16799;50.844;5.304;2022-07-06T11:07:07;1.43;;;1.30;;
29938;SDS011;16799;50.844;5.304;2022-07-06T11:09:34;5.20;;;2.30;;
29938;SDS011;16799;50.844;5.304;2022-07-06T11:12:11;4.47;;;2.30;;
29938;SDS011;16799;50.844;5.304;2022-07-06T11:14:40;4.90;;;1.50;;
29938;SDS011;16799;50.844;5.304;2022-07-06T11:17:06;2.33;;;1.63;;
29938;SDS011;16799;50.844;5.304;2022-07-06T11:19:35;6.20;;;1.97;;
29938;SDS011;16799;50.844;5.304;2022-07-06T11:22:07;2.40;;;1.97;;
29938;SDS011;16799;50.844;5.304;2022-07-06T11:24:38;2.90;;;2.33;;
29938;SDS011;16799;50.844;5.304;2022-07-06T11:27:05;5.40;;;2.03;;
29938;SDS011;16799;50.844;5.304;2022-07-06T11:29:32;3.37;;;1.40;;
29938;SDS011;16799;50.844;5.304;2022-07-06T11:32:04;6.63;;;1.47;;
29938;SDS011;16799;50.844;5.304;2022-07-06T11:34:34;3.20;;;2.30;;
29938;SDS011;16799;50.844;5.304;2022-07-06T11:37:03;5.83;;;1.77;;
29938;SDS011;16799;50.844;5.304;2022-07-06T11:39:34;4.13;;;1.63;;
29938;SDS011;16799;50.844;5.304;2022-07-06T11:42:01;4.50;;;2.07;;
29938;SDS011;16799;50.844;5.304;2022-07-06T11:44:29;5.60;;;1.57;;
29938;SDS011;16799;50.844;5.304;2022-07-06T11:46:55;5.43;;;2.13;;
29938;SDS011;16799;50.844;5.304;2022-07-06T11:49:22;2.50;;;1.80;;
29938;SDS011;16799;50.844;5.304;2022-07-06T11:51:48;4.63;;;1.80;;
29938;SDS011;16799;50.844;5.304;2022-07-06T11:54:15;3.60;;;1.80;;
29938;SDS011;16799;50.844;5.304;2022-07-06T11:56:48;1.73;;;1.60;;
29938;SDS011;16799;50.844;5.304;2022-07-06T11:59:27;2.67;;;2.00;;
29938;SDS011;16799;50.844;5.304;2022-07-06T12:04:29;3.50;;;2.10;;
29938;SDS011;16799;50.844;5.304;2022-07-06T12:06:57;2.20;;;2.03;;
29938;SDS011;16799;50.844;5.304;2022-07-06T12:09:25;3.67;;;2.63;;
29938;SDS011;16799;50.844;5.304;2022-07-06T12:11:54;5.17;;;1.77;;
29938;SDS011;16799;50.844;5.304;2022-07-06T12:14:20;6.00;;;3.03;;
29938;SDS011;16799;50.844;5.304;2022-07-06T12:16:47;7.67;;;1.70;;
29938;SDS011;16799;50.844;5.304;2022-07-06T12:19:14;2.30;;;1.43;;
29938;SDS011;16799;50.844;5.304;2022-07-06T12:21:44;2.87;;;1.57;;
29938;SDS011;16799;50.844;5.304;2022-07-06T12:24:16;3.10;;;2.33;;
29938;SDS011;16799;50.844;5.304;2022-07-06T12:26:43;5.37;;;1.60;;
29938;SDS011;16799;50.844;5.304;2022-07-06T12:29:10;1.50;;;1.40;;
29938;SDS011;16799;50.844;5.304;2022-07-06T12:31:41;4.30;;;2.00;;
29938;SDS011;16799;50.844;5.304;2022-07-06T12:34:15;6.10;;;2.50;;
29938;SDS011;16799;50.844;5.304;2022-07-06T12:36:43;2.63;;;1.70;;
29938;SDS011;16799;50.844;5.304;2022-07-06T12:39:13;3.30;;;1.60;;
29938;SDS011;16799;50.844;5.304;2022-07-06T12:44:22;5.93;;;2.30;;
29938;SDS011;16799;50.844;5.304;2022-07-06T12:46:49;2.40;;;1.63;;
29938;SDS011;16799;50.844;5.304;2022-07-06T12:49:23;3.23;;;1.50;;
29938;SDS011;16799;50.844;5.304;2022-07-06T12:51:49;9.37;;;2.00;;
29938;SDS011;16799;50.844;5.304;2022-07-06T12:54:16;2.73;;;2.23;;
29938;SDS011;16799;50.844;5.304;2022-07-06T12:56:59;2.60;;;1.37;;
29938;SDS011;16799;50.844;5.304;2022-07-06T12:59:26;5.03;;;1.20;;
29938;SDS011;16799;50.844;5.304;2022-07-06T13:01:53;4.93;;;2.37;;
29938;SDS011;16799;50.844;5.304;2022-07-06T13:04:22;4.00;;;1.60;;
29938;SDS011;16799;50.844;5.304;2022-07-06T13:06:52;3.13;;;1.63;;
29938;SDS011;16799;50.844;5.304;2022-07-06T13:09:18;3.37;;;1.83;;
29938;SDS011;16799;50.844;5.304;2022-07-06T13:11:47;1.77;;;1.40;;
29938;SDS011;16799;50.844;5.304;2022-07-06T13:14:14;10.50;;;2.07;;
29938;SDS011;16799;50.844;5.304;2022-07-06T13:16:41;8.07;;;2.10;;
29938;SDS011;16799;50.844;5.304;2022-07-06T13:19:07;2.67;;;1.90;;
29938;SDS011;16799;50.844;5.304;2022-07-06T13:21:34;5.30;;;2.23;;
29938;SDS011;16799;50.844;5.304;2022-07-06T13:24:00;1.63;;;1.53;;
29938;SDS011;16799;50.844;5.304;2022-07-06T13:26:26;3.80;;;1.73;;
29938;SDS011;16799;50.844;5.304;2022-07-06T13:28:51;2.03;;;1.60;;
29938;SDS011;16799;50.844;5.304;2022-07-06T13:31:17;3.30;;;1.50;;
29938;SDS011;16799;50.844;5.304;2022-07-06T13:33:43;5.70;;;2.07;;
29938;SDS011;16799;50.844;5.304;2022-07-06T13:36:08;8.57;;;3.10;;
29938;SDS011;16799;50.844;5.304;2022-07-06T13:38:34;5.40;;;1.90;;
29938;SDS011;16799;50.844;5.304;2022-07-06T13:41:00;4.37;;;1.90;;
29938;SDS011;16799;50.844;5.304;2022-07-06T13:43:26;2.07;;;1.53;;
29938;SDS011;16799;50.844;5.304;2022-07-06T13:46:00;3.10;;;1.40;;
29938;SDS011;16799;50.844;5.304;2022-07-06T13:48:30;1.83;;;1.53;;
29938;SDS011;16799;50.844;5.304;2022-07-06T13:50:57;3.33;;;1.80;;
29938;SDS011;16799;50.844;5.304;2022-07-06T13:53:22;5.17;;;1.13;;
29938;SDS011;16799;50.844;5.304;2022-07-06T13:55:48;3.50;;;1.80;;
29938;SDS011;16799;50.844;5.304;2022-07-06T13:58:14;1.93;;;1.50;;
29938;SDS011;16799;50.844;5.304;2022-07-06T14:00:39;1.93;;;1.57;;
29938;SDS011;16799;50.844;5.304;2022-07-06T14:03:06;1.50;;;1.30;;
29938;SDS011;16799;50.844;5.304;2022-07-06T14:05:33;3.30;;;1.50;;
29938;SDS011;16799;50.844;5.304;2022-07-06T14:07:59;3.53;;;1.37;;
29938;SDS011;16799;50.844;5.304;2022-07-06T14:10:25;9.00;;;2.40;;
29938;SDS011;16799;50.844;5.304;2022-07-06T14:12:50;2.30;;;1.13;;
29938;SDS011;16799;50.844;5.304;2022-07-06T14:15:16;4.40;;;1.00;;
29938;SDS011;16799;50.844;5.304;2022-07-06T14:17:42;7.60;;;2.60;;
29938;SDS011;16799;50.844;5.304;2022-07-06T14:20:07;2.33;;;1.10;;
29938;SDS011;16799;50.844;5.304;2022-07-06T14:22:34;1.93;;;1.03;;
29938;SDS011;16799;50.844;5.304;2022-07-06T14:24:59;2.30;;;1.90;;
29938;SDS011;16799;50.844;5.304;2022-07-06T14:27:25;6.57;;;1.70;;
29938;SDS011;16799;50.844;5.304;2022-07-06T14:29:51;1.70;;;1.33;;
29938;SDS011;16799;50.844;5.304;2022-07-06T14:32:16;2.07;;;1.50;;
29938;SDS011;16799;50.844;5.304;2022-07-06T14:34:42;7.70;;;1.57;;
29938;SDS011;16799;50.844;5.304;2022-07-06T14:37:08;2.93;;;0.97;;
29938;SDS011;16799;50.844;5.304;2022-07-06T14:39:34;4.13;;;1.77;;
29938;SDS011;16799;50.844;5.304;2022-07-06T14:41:59;1.67;;;1.33;;
29938;SDS011;16799;50.844;5.304;2022-07-06T14:44:25;6.80;;;2.00;;
29938;SDS011;16799;50.844;5.304;2022-07-06T14:46:51;3.67;;;1.40;;
29938;SDS011;16799;50.844;5.304;2022-07-06T14:49:17;3.43;;;1.30;;
29938;SDS011;16799;50.844;5.304;2022-07-06T14:51:43;2.87;;;2.27;;